sensor_id;sensor_type;location;lat;lon;timestamp;temperature;humidity
17726;DHT22;8983;53.156;17.960;2023-02-13T00:01:01;5.10;99.90
17726;DHT22;8983;53.156;17.960;2023-02-13T00:03:29;5.10;99.90
17726;DHT22;8983;53.156;17.960;2023-02-13T00:05:57;5.10;99.90
17726;DHT22;8983;53.156;17.960;2023-02-13T00:08:25;5.10;99.90
17726;DHT22;8983;53.156;17.960;2023-02-13T00:10:54;6.40;99.90
17726;DHT22;8983;53.156;17.960;2023-02-13T00:13:23;5.10;99.90
17726;DHT22;8983;53.156;17.960;2023-02-13T00:15:55;5.00;99.90
17726;DHT22;8983;53.156;17.960;2023-02-13T00:18:24;5.10;99.90
17726;DHT22;8983;53.156;17.960;2023-02-13T00:20:59;5.10;99.90
17726;DHT22;8983;53.156;17.960;2023-02-13T00:23:28;5.00;99.90
17726;DHT22;8983;53.156;17.960;2023-02-13T00:26:00;5.10;99.90
17726;DHT22;8983;53.156;17.960;2023-02-13T00:28:28;5.10;99.90
17726;DHT22;8983;53.156;17.960;2023-02-13T00:31:02;5.10;99.90
17726;DHT22;8983;53.156;17.960;2023-02-13T00:33:30;5.10;99.90
17726;DHT22;8983;53.156;17.960;2023-02-13T00:36:03;5.10;99.90
17726;DHT22;8983;53.156;17.960;2023-02-13T00:38:31;5.10;99.90
17726;DHT22;8983;53.156;17.960;2023-02-13T00:41:01;5.10;99.90
17726;DHT22;8983;53.156;17.960;2023-02-13T00:43:30;5.10;99.90
17726;DHT22;8983;53.156;17.960;2023-02-13T00:45:58;5.10;99.90
17726;DHT22;8983;53.156;17.960;2023-02-13T00:48:28;5.10;99.90
17726;DHT22;8983;53.156;17.960;2023-02-13T00:50:56;5.10;99.90
17726;DHT22;8983;53.156;17.960;2023-02-13T00:53:25;5.10;99.90
17726;DHT22;8983;53.156;17.960;2023-02-13T00:55:53;5.10;99.90
17726;DHT22;8983;53.156;17.960;2023-02-13T00:58:23;5.10;99.90
17726;DHT22;8983;53.156;17.960;2023-02-13T01:00:52;5.10;99.90
17726;DHT22;8983;53.156;17.960;2023-02-13T01:03:21;5.10;99.90
17726;DHT22;8983;53.156;17.960;2023-02-13T01:05:49;5.40;99.90
17726;DHT22;8983;53.156;17.960;2023-02-13T01:08:18;5.10;99.90
17726;DHT22;8983;53.156;17.960;2023-02-13T01:10:47;5.10;99.90
17726;DHT22;8983;53.156;17.960;2023-02-13T01:13:16;5.10;99.90
17726;DHT22;8983;53.156;17.960;2023-02-13T01:15:47;5.10;99.90
17726;DHT22;8983;53.156;17.960;2023-02-13T01:18:17;5.10;99.90
17726;DHT22;8983;53.156;17.960;2023-02-13T01:20:55;5.10;99.90
17726;DHT22;8983;53.156;17.960;2023-02-13T01:23:25;5.10;99.90
17726;DHT22;8983;53.156;17.960;2023-02-13T01:25:53;5.20;99.90
17726;DHT22;8983;53.156;17.960;2023-02-13T01:28:21;5.10;99.90
17726;DHT22;8983;53.156;17.960;2023-02-13T01:30:53;5.10;99.90
17726;DHT22;8983;53.156;17.960;2023-02-13T01:33:23;5.10;99.90
17726;DHT22;8983;53.156;17.960;2023-02-13T01:35:52;5.10;99.90
17726;DHT22;8983;53.156;17.960;2023-02-13T01:38:20;5.10;99.90
17726;DHT22;8983;53.156;17.960;2023-02-13T01:40:50;5.10;99.90
17726;DHT22;8983;53.156;17.960;2023-02-13T01:43:19;5.10;99.90
17726;DHT22;8983;53.156;17.960;2023-02-13T01:45:53;5.10;99.90
17726;DHT22;8983;53.156;17.960;2023-02-13T01:48:24;5.10;99.90
17726;DHT22;8983;53.156;17.960;2023-02-13T01:50:56;5.90;99.90
17726;DHT22;8983;53.156;17.960;2023-02-13T01:53:28;5.10;99.90
17726;DHT22;8983;53.156;17.960;2023-02-13T01:56:02;5.10;99.90
17726;DHT22;8983;53.156;17.960;2023-02-13T01:58:34;5.10;99.90
17726;DHT22;8983;53.156;17.960;2023-02-13T02:01:07;5.10;99.90
17726;DHT22;8983;53.156;17.960;2023-02-13T02:03:40;5.10;99.90
17726;DHT22;8983;53.156;17.960;2023-02-13T02:06:15;5.10;99.90
17726;DHT22;8983;53.156;17.960;2023-02-13T02:08:46;5.10;99.90
17726;DHT22;8983;53.156;17.960;2023-02-13T02:11:19;5.10;99.90
17726;DHT22;8983;53.156;17.960;2023-02-13T02:13:50;5.10;99.90
17726;DHT22;8983;53.156;17.960;2023-02-13T02:16:20;5.10;99.90
17726;DHT22;8983;53.156;17.960;2023-02-13T02:18:48;5.10;99.90
17726;DHT22;8983;53.156;17.960;2023-02-13T02:21:45;5.20;99.90
17726;DHT22;8983;53.156;17.960;2023-02-13T02:24:40;5.20;99.90
17726;DHT22;8983;53.156;17.960;2023-02-13T02:27:49;5.20;99.90
17726;DHT22;8983;53.156;17.960;2023-02-13T02:30:44;5.20;99.90
17726;DHT22;8983;53.156;17.960;2023-02-13T02:33:30;5.20;99.90
17726;DHT22;8983;53.156;17.960;2023-02-13T02:36:09;5.20;99.90
17726;DHT22;8983;53.156;17.960;2023-02-13T02:38:53;5.20;99.90
17726;DHT22;8983;53.156;17.960;2023-02-13T02:41:31;5.20;99.90
17726;DHT22;8983;53.156;17.960;2023-02-13T02:44:22;5.20;99.90
17726;DHT22;8983;53.156;17.960;2023-02-13T02:46:57;5.20;99.90
17726;DHT22;8983;53.156;17.960;2023-02-13T02:49:59;5.20;99.90
17726;DHT22;8983;53.156;17.960;2023-02-13T02:52:38;5.20;99.90
17726;DHT22;8983;53.156;17.960;2023-02-13T02:55:11;5.20;99.90
17726;DHT22;8983;53.156;17.960;2023-02-13T02:57:43;5.20;99.90
17726;DHT22;8983;53.156;17.960;2023-02-13T03:00:32;5.20;99.90
17726;DHT22;8983;53.156;17.960;2023-02-13T03:03:21;5.20;99.90
17726;DHT22;8983;53.156;17.960;2023-02-13T03:06:12;5.20;99.90
17726;DHT22;8983;53.156;17.960;2023-02-13T03:08:44;5.20;99.90
17726;DHT22;8983;53.156;17.960;2023-02-13T03:11:30;5.20;99.90
17726;DHT22;8983;53.156;17.960;2023-02-13T03:14:18;5.20;99.90
17726;DHT22;8983;53.156;17.960;2023-02-13T03:16:47;5.20;99.90
17726;DHT22;8983;53.156;17.960;2023-02-13T03:19:41;5.20;99.90
17726;DHT22;8983;53.156;17.960;2023-02-13T03:22:36;5.20;99.90
17726;DHT22;8983;53.156;17.960;2023-02-13T03:25:13;5.20;99.90
17726;DHT22;8983;53.156;17.960;2023-02-13T03:27:48;5.20;99.90
17726;DHT22;8983;53.156;17.960;2023-02-13T03:30:42;5.20;99.90
17726;DHT22;8983;53.156;17.960;2023-02-13T03:33:26;5.90;99.90
17726;DHT22;8983;53.156;17.960;2023-02-13T03:36:02;6.00;99.90
17726;DHT22;8983;53.156;17.960;2023-02-13T03:38:56;5.20;99.90
17726;DHT22;8983;53.156;17.960;2023-02-13T03:41:29;5.20;99.90
17726;DHT22;8983;53.156;17.960;2023-02-13T03:44:03;5.20;99.90
17726;DHT22;8983;53.156;17.960;2023-02-13T03:46:34;5.20;99.90
17726;DHT22;8983;53.156;17.960;2023-02-13T03:49:06;5.20;99.90
17726;DHT22;8983;53.156;17.960;2023-02-13T03:51:58;6.10;99.90
17726;DHT22;8983;53.156;17.960;2023-02-13T03:54:33;5.20;99.90
17726;DHT22;8983;53.156;17.960;2023-02-13T03:57:22;5.20;99.90
17726;DHT22;8983;53.156;17.960;2023-02-13T04:00:11;5.20;99.90
17726;DHT22;8983;53.156;17.960;2023-02-13T04:02:47;5.20;99.90
17726;DHT22;8983;53.156;17.960;2023-02-13T04:05:21;5.20;99.90
17726;DHT22;8983;53.156;17.960;2023-02-13T04:07:49;5.20;99.90
17726;DHT22;8983;53.156;17.960;2023-02-13T04:10:20;5.20;99.90
17726;DHT22;8983;53.156;17.960;2023-02-13T04:12:56;5.30;99.90
17726;DHT22;8983;53.156;17.960;2023-02-13T04:15:30;5.20;99.90
17726;DHT22;8983;53.156;17.960;2023-02-13T04:18:05;5.20;99.90
17726;DHT22;8983;53.156;17.960;2023-02-13T04:20:37;5.20;99.90
17726;DHT22;8983;53.156;17.960;2023-02-13T04:23:06;5.20;99.90
17726;DHT22;8983;53.156;17.960;2023-02-13T04:25:38;5.20;99.90
17726;DHT22;8983;53.156;17.960;2023-02-13T04:28:06;5.20;99.90
17726;DHT22;8983;53.156;17.960;2023-02-13T04:30:35;5.20;99.90
17726;DHT22;8983;53.156;17.960;2023-02-13T04:33:03;5.30;99.90
17726;DHT22;8983;53.156;17.960;2023-02-13T04:35:31;5.20;99.90
17726;DHT22;8983;53.156;17.960;2023-02-13T04:37:59;5.20;99.90
17726;DHT22;8983;53.156;17.960;2023-02-13T04:40:27;5.70;99.90
17726;DHT22;8983;53.156;17.960;2023-02-13T04:42:56;5.20;99.90
17726;DHT22;8983;53.156;17.960;2023-02-13T04:45:25;5.20;99.90
17726;DHT22;8983;53.156;17.960;2023-02-13T04:47:54;5.20;99.90
17726;DHT22;8983;53.156;17.960;2023-02-13T04:50:22;5.20;99.90
17726;DHT22;8983;53.156;17.960;2023-02-13T04:52:52;5.20;99.90
17726;DHT22;8983;53.156;17.960;2023-02-13T04:55:21;5.20;99.90
17726;DHT22;8983;53.156;17.960;2023-02-13T04:57:51;5.30;99.90
17726;DHT22;8983;53.156;17.960;2023-02-13T05:00:21;5.30;99.90
17726;DHT22;8983;53.156;17.960;2023-02-13T05:02:49;5.30;99.90
17726;DHT22;8983;53.156;17.960;2023-02-13T05:05:17;5.30;99.90
17726;DHT22;8983;53.156;17.960;2023-02-13T05:07:45;5.30;99.90
17726;DHT22;8983;53.156;17.960;2023-02-13T05:10:13;5.30;99.90
17726;DHT22;8983;53.156;17.960;2023-02-13T05:12:41;5.20;99.90
17726;DHT22;8983;53.156;17.960;2023-02-13T05:15:10;5.30;99.90
17726;DHT22;8983;53.156;17.960;2023-02-13T05:17:40;5.30;99.90
17726;DHT22;8983;53.156;17.960;2023-02-13T05:20:10;5.30;99.90
17726;DHT22;8983;53.156;17.960;2023-02-13T05:22:43;5.30;99.90
17726;DHT22;8983;53.156;17.960;2023-02-13T05:25:28;5.30;99.90
17726;DHT22;8983;53.156;17.960;2023-02-13T05:27:56;5.30;99.90
17726;DHT22;8983;53.156;17.960;2023-02-13T05:30:25;5.30;99.90
17726;DHT22;8983;53.156;17.960;2023-02-13T05:32:53;5.30;99.90
17726;DHT22;8983;53.156;17.960;2023-02-13T05:35:21;5.30;99.90
17726;DHT22;8983;53.156;17.960;2023-02-13T05:37:50;5.30;99.90
17726;DHT22;8983;53.156;17.960;2023-02-13T05:40:18;5.30;99.90
17726;DHT22;8983;53.156;17.960;2023-02-13T05:42:48;5.30;99.90
17726;DHT22;8983;53.156;17.960;2023-02-13T05:45:16;5.30;99.90
17726;DHT22;8983;53.156;17.960;2023-02-13T05:47:44;5.30;99.90
17726;DHT22;8983;53.156;17.960;2023-02-13T05:50:13;5.30;99.90
17726;DHT22;8983;53.156;17.960;2023-02-13T05:52:42;5.30;99.90
17726;DHT22;8983;53.156;17.960;2023-02-13T05:55:09;5.30;99.90
17726;DHT22;8983;53.156;17.960;2023-02-13T05:57:37;5.30;99.90
17726;DHT22;8983;53.156;17.960;2023-02-13T06:00:06;5.30;99.90
17726;DHT22;8983;53.156;17.960;2023-02-13T06:02:34;5.30;99.90
17726;DHT22;8983;53.156;17.960;2023-02-13T06:05:03;5.30;99.90
17726;DHT22;8983;53.156;17.960;2023-02-13T06:07:32;5.30;99.90
17726;DHT22;8983;53.156;17.960;2023-02-13T06:10:00;5.30;99.90
17726;DHT22;8983;53.156;17.960;2023-02-13T06:12:28;5.30;99.90
17726;DHT22;8983;53.156;17.960;2023-02-13T06:14:56;5.30;99.90
17726;DHT22;8983;53.156;17.960;2023-02-13T06:17:24;5.30;99.90
17726;DHT22;8983;53.156;17.960;2023-02-13T06:19:52;5.30;99.90
17726;DHT22;8983;53.156;17.960;2023-02-13T06:22:20;5.30;99.90
17726;DHT22;8983;53.156;17.960;2023-02-13T06:24:49;5.30;99.90
17726;DHT22;8983;53.156;17.960;2023-02-13T06:27:17;5.30;99.90
17726;DHT22;8983;53.156;17.960;2023-02-13T06:29:45;5.30;99.90
17726;DHT22;8983;53.156;17.960;2023-02-13T06:32:13;5.30;99.90
17726;DHT22;8983;53.156;17.960;2023-02-13T06:34:41;5.30;99.90
17726;DHT22;8983;53.156;17.960;2023-02-13T06:37:09;5.30;99.90
17726;DHT22;8983;53.156;17.960;2023-02-13T06:39:37;5.30;99.90
17726;DHT22;8983;53.156;17.960;2023-02-13T06:42:06;5.30;99.90
17726;DHT22;8983;53.156;17.960;2023-02-13T06:44:34;5.30;99.90
17726;DHT22;8983;53.156;17.960;2023-02-13T06:47:02;5.30;99.90
17726;DHT22;8983;53.156;17.960;2023-02-13T06:49:30;5.30;99.90
17726;DHT22;8983;53.156;17.960;2023-02-13T06:51:58;5.40;99.90
17726;DHT22;8983;53.156;17.960;2023-02-13T06:54:26;5.30;99.90
17726;DHT22;8983;53.156;17.960;2023-02-13T06:57:14;5.50;99.90
17726;DHT22;8983;53.156;17.960;2023-02-13T06:59:42;5.40;99.90
17726;DHT22;8983;53.156;17.960;2023-02-13T07:02:10;5.40;99.90
17726;DHT22;8983;53.156;17.960;2023-02-13T07:04:38;5.40;99.90
17726;DHT22;8983;53.156;17.960;2023-02-13T07:07:06;5.40;99.90
17726;DHT22;8983;53.156;17.960;2023-02-13T07:09:34;5.40;99.90
17726;DHT22;8983;53.156;17.960;2023-02-13T07:12:03;5.40;99.90
17726;DHT22;8983;53.156;17.960;2023-02-13T07:14:32;5.40;99.90
17726;DHT22;8983;53.156;17.960;2023-02-13T07:17:00;5.40;99.90
17726;DHT22;8983;53.156;17.960;2023-02-13T07:19:28;5.40;99.90
17726;DHT22;8983;53.156;17.960;2023-02-13T07:21:56;5.40;99.90
17726;DHT22;8983;53.156;17.960;2023-02-13T07:24:24;5.40;99.90
17726;DHT22;8983;53.156;17.960;2023-02-13T07:26:52;5.40;99.90
17726;DHT22;8983;53.156;17.960;2023-02-13T07:29:20;5.40;99.90
17726;DHT22;8983;53.156;17.960;2023-02-13T07:31:49;5.40;99.90
17726;DHT22;8983;53.156;17.960;2023-02-13T07:34:17;5.40;99.90
17726;DHT22;8983;53.156;17.960;2023-02-13T07:36:45;5.40;99.90
17726;DHT22;8983;53.156;17.960;2023-02-13T07:39:13;5.40;99.90
17726;DHT22;8983;53.156;17.960;2023-02-13T07:41:41;5.50;99.90
17726;DHT22;8983;53.156;17.960;2023-02-13T07:44:09;5.50;99.90
17726;DHT22;8983;53.156;17.960;2023-02-13T07:46:37;5.50;99.90
17726;DHT22;8983;53.156;17.960;2023-02-13T07:49:07;5.50;99.90
17726;DHT22;8983;53.156;17.960;2023-02-13T07:51:35;5.50;99.90
17726;DHT22;8983;53.156;17.960;2023-02-13T07:54:03;5.50;99.90
17726;DHT22;8983;53.156;17.960;2023-02-13T07:56:31;5.50;99.90
17726;DHT22;8983;53.156;17.960;2023-02-13T07:58:59;5.50;99.90
17726;DHT22;8983;53.156;17.960;2023-02-13T08:01:27;5.50;99.90
17726;DHT22;8983;53.156;17.960;2023-02-13T08:03:55;5.60;99.90
17726;DHT22;8983;53.156;17.960;2023-02-13T08:06:24;5.60;99.90
17726;DHT22;8983;53.156;17.960;2023-02-13T08:08:53;5.60;99.90
17726;DHT22;8983;53.156;17.960;2023-02-13T08:11:35;5.60;99.90
17726;DHT22;8983;53.156;17.960;2023-02-13T08:14:22;5.60;99.90
17726;DHT22;8983;53.156;17.960;2023-02-13T08:16:51;5.60;99.90
17726;DHT22;8983;53.156;17.960;2023-02-13T08:19:19;5.60;99.90
17726;DHT22;8983;53.156;17.960;2023-02-13T08:21:49;5.60;99.90
17726;DHT22;8983;53.156;17.960;2023-02-13T08:24:17;5.70;99.90
17726;DHT22;8983;53.156;17.960;2023-02-13T08:26:45;5.70;99.90
17726;DHT22;8983;53.156;17.960;2023-02-13T08:29:13;5.70;99.90
17726;DHT22;8983;53.156;17.960;2023-02-13T08:31:41;5.70;99.90
17726;DHT22;8983;53.156;17.960;2023-02-13T08:34:09;5.70;99.90
17726;DHT22;8983;53.156;17.960;2023-02-13T08:36:37;5.70;99.90
17726;DHT22;8983;53.156;17.960;2023-02-13T08:39:08;5.70;99.90
17726;DHT22;8983;53.156;17.960;2023-02-13T08:41:36;5.70;99.90
17726;DHT22;8983;53.156;17.960;2023-02-13T08:44:04;5.70;99.90
17726;DHT22;8983;53.156;17.960;2023-02-13T08:46:32;5.80;99.90
17726;DHT22;8983;53.156;17.960;2023-02-13T08:49:00;5.80;99.90
17726;DHT22;8983;53.156;17.960;2023-02-13T08:51:28;5.80;99.90
17726;DHT22;8983;53.156;17.960;2023-02-13T08:53:56;5.80;99.90
17726;DHT22;8983;53.156;17.960;2023-02-13T08:56:26;5.80;99.90
17726;DHT22;8983;53.156;17.960;2023-02-13T08:58:54;5.80;99.90
17726;DHT22;8983;53.156;17.960;2023-02-13T09:01:21;5.80;99.90
17726;DHT22;8983;53.156;17.960;2023-02-13T09:03:50;5.80;99.90
17726;DHT22;8983;53.156;17.960;2023-02-13T09:06:19;5.90;99.90
17726;DHT22;8983;53.156;17.960;2023-02-13T09:08:47;5.80;99.90
17726;DHT22;8983;53.156;17.960;2023-02-13T09:11:15;5.90;99.90
17726;DHT22;8983;53.156;17.960;2023-02-13T09:13:44;5.90;99.90
17726;DHT22;8983;53.156;17.960;2023-02-13T09:16:14;5.90;99.90
17726;DHT22;8983;53.156;17.960;2023-02-13T09:18:42;5.90;99.90
17726;DHT22;8983;53.156;17.960;2023-02-13T09:21:11;5.90;99.90
17726;DHT22;8983;53.156;17.960;2023-02-13T09:23:40;5.90;99.90
17726;DHT22;8983;53.156;17.960;2023-02-13T09:26:10;5.90;99.90
17726;DHT22;8983;53.156;17.960;2023-02-13T09:28:39;5.90;99.90
17726;DHT22;8983;53.156;17.960;2023-02-13T09:31:10;6.00;99.90
17726;DHT22;8983;53.156;17.960;2023-02-13T09:33:40;5.90;99.90
17726;DHT22;8983;53.156;17.960;2023-02-13T09:36:09;6.00;99.90
17726;DHT22;8983;53.156;17.960;2023-02-13T09:38:39;6.00;99.90
17726;DHT22;8983;53.156;17.960;2023-02-13T09:41:12;6.00;99.90
17726;DHT22;8983;53.156;17.960;2023-02-13T09:43:46;6.40;99.90
17726;DHT22;8983;53.156;17.960;2023-02-13T09:46:19;6.00;99.90
17726;DHT22;8983;53.156;17.960;2023-02-13T09:48:50;6.00;99.90
17726;DHT22;8983;53.156;17.960;2023-02-13T09:51:19;6.00;99.90
17726;DHT22;8983;53.156;17.960;2023-02-13T09:53:52;6.10;99.90
17726;DHT22;8983;53.156;17.960;2023-02-13T09:56:27;6.10;99.90
17726;DHT22;8983;53.156;17.960;2023-02-13T09:59:01;6.10;99.90
17726;DHT22;8983;53.156;17.960;2023-02-13T10:01:36;6.10;99.90
17726;DHT22;8983;53.156;17.960;2023-02-13T10:04:22;6.10;99.90
17726;DHT22;8983;53.156;17.960;2023-02-13T10:06:57;6.10;99.90
17726;DHT22;8983;53.156;17.960;2023-02-13T10:09:32;6.20;99.90
17726;DHT22;8983;53.156;17.960;2023-02-13T10:12:19;6.20;99.90
17726;DHT22;8983;53.156;17.960;2023-02-13T10:14:57;6.20;99.90
17726;DHT22;8983;53.156;17.960;2023-02-13T10:17:32;6.30;99.90
17726;DHT22;8983;53.156;17.960;2023-02-13T10:20:05;6.30;99.90
17726;DHT22;8983;53.156;17.960;2023-02-13T10:22:37;6.30;99.90
17726;DHT22;8983;53.156;17.960;2023-02-13T10:25:12;6.30;99.90
17726;DHT22;8983;53.156;17.960;2023-02-13T10:27:45;6.40;99.90
17726;DHT22;8983;53.156;17.960;2023-02-13T10:30:19;6.40;99.90
17726;DHT22;8983;53.156;17.960;2023-02-13T10:32:55;6.40;99.90
17726;DHT22;8983;53.156;17.960;2023-02-13T10:35:40;6.40;99.90
17726;DHT22;8983;53.156;17.960;2023-02-13T10:38:15;6.40;99.90
17726;DHT22;8983;53.156;17.960;2023-02-13T10:40:56;6.40;99.90
17726;DHT22;8983;53.156;17.960;2023-02-13T10:43:29;6.50;99.90
17726;DHT22;8983;53.156;17.960;2023-02-13T10:46:10;6.50;99.90
17726;DHT22;8983;53.156;17.960;2023-02-13T10:48:54;6.50;99.90
17726;DHT22;8983;53.156;17.960;2023-02-13T10:51:28;6.50;99.90
17726;DHT22;8983;53.156;17.960;2023-02-13T10:54:17;6.60;99.90
17726;DHT22;8983;53.156;17.960;2023-02-13T10:56:54;6.60;99.90
17726;DHT22;8983;53.156;17.960;2023-02-13T10:59:36;6.60;99.90
17726;DHT22;8983;53.156;17.960;2023-02-13T11:02:21;6.80;99.90
17726;DHT22;8983;53.156;17.960;2023-02-13T11:04:57;6.60;99.90
17726;DHT22;8983;53.156;17.960;2023-02-13T11:07:26;6.60;99.90
17726;DHT22;8983;53.156;17.960;2023-02-13T11:10:00;6.60;99.90
17726;DHT22;8983;53.156;17.960;2023-02-13T11:12:32;6.60;99.90
17726;DHT22;8983;53.156;17.960;2023-02-13T11:15:02;7.50;99.90
17726;DHT22;8983;53.156;17.960;2023-02-13T11:17:32;6.70;99.90
17726;DHT22;8983;53.156;17.960;2023-02-13T11:20:04;6.60;99.90
17726;DHT22;8983;53.156;17.960;2023-02-13T11:22:35;6.60;99.90
17726;DHT22;8983;53.156;17.960;2023-02-13T11:25:16;6.70;99.90
17726;DHT22;8983;53.156;17.960;2023-02-13T11:27:46;6.70;99.90
17726;DHT22;8983;53.156;17.960;2023-02-13T11:30:30;6.70;99.90
17726;DHT22;8983;53.156;17.960;2023-02-13T11:33:01;6.70;99.90
17726;DHT22;8983;53.156;17.960;2023-02-13T11:35:32;6.90;99.90
17726;DHT22;8983;53.156;17.960;2023-02-13T11:38:21;6.70;99.90
17726;DHT22;8983;53.156;17.960;2023-02-13T11:40:51;6.70;99.90
17726;DHT22;8983;53.156;17.960;2023-02-13T11:43:32;6.70;99.90
17726;DHT22;8983;53.156;17.960;2023-02-13T11:46:04;6.70;99.90
17726;DHT22;8983;53.156;17.960;2023-02-13T11:48:33;6.70;99.90
17726;DHT22;8983;53.156;17.960;2023-02-13T11:51:03;6.70;99.90
17726;DHT22;8983;53.156;17.960;2023-02-13T11:53:36;6.80;99.90
17726;DHT22;8983;53.156;17.960;2023-02-13T11:56:08;6.80;99.90
17726;DHT22;8983;53.156;17.960;2023-02-13T11:58:36;6.80;99.90
17726;DHT22;8983;53.156;17.960;2023-02-13T12:01:14;6.80;99.90
17726;DHT22;8983;53.156;17.960;2023-02-13T12:04:00;6.80;99.90
17726;DHT22;8983;53.156;17.960;2023-02-13T12:06:31;6.80;99.90
17726;DHT22;8983;53.156;17.960;2023-02-13T12:09:11;6.80;99.90
17726;DHT22;8983;53.156;17.960;2023-02-13T12:11:43;6.80;99.90
17726;DHT22;8983;53.156;17.960;2023-02-13T12:14:17;6.80;99.90
17726;DHT22;8983;53.156;17.960;2023-02-13T12:16:48;6.80;99.90
17726;DHT22;8983;53.156;17.960;2023-02-13T12:19:20;7.10;99.90
17726;DHT22;8983;53.156;17.960;2023-02-13T12:22:08;6.90;99.90
17726;DHT22;8983;53.156;17.960;2023-02-13T12:25:08;6.90;99.90
17726;DHT22;8983;53.156;17.960;2023-02-13T12:27:46;6.80;99.90
17726;DHT22;8983;53.156;17.960;2023-02-13T12:30:33;7.00;99.90
17726;DHT22;8983;53.156;17.960;2023-02-13T12:33:13;6.80;99.90
17726;DHT22;8983;53.156;17.960;2023-02-13T12:35:54;6.80;99.90
17726;DHT22;8983;53.156;17.960;2023-02-13T12:38:35;6.90;99.90
17726;DHT22;8983;53.156;17.960;2023-02-13T12:41:14;7.50;99.90
17726;DHT22;8983;53.156;17.960;2023-02-13T12:44:06;6.90;99.90
17726;DHT22;8983;53.156;17.960;2023-02-13T12:46:44;6.90;99.90
17726;DHT22;8983;53.156;17.960;2023-02-13T12:52:24;6.80;99.90
17726;DHT22;8983;53.156;17.960;2023-02-13T12:55:16;7.90;99.90
17726;DHT22;8983;53.156;17.960;2023-02-13T12:57:58;6.80;99.90
17726;DHT22;8983;53.156;17.960;2023-02-13T13:00:42;7.90;99.90
17726;DHT22;8983;53.156;17.960;2023-02-13T13:03:30;6.80;99.90
17726;DHT22;8983;53.156;17.960;2023-02-13T13:06:16;7.60;99.90
17726;DHT22;8983;53.156;17.960;2023-02-13T13:11:55;6.80;99.90
17726;DHT22;8983;53.156;17.960;2023-02-13T13:14:31;6.80;99.90
17726;DHT22;8983;53.156;17.960;2023-02-13T13:17:07;6.80;99.90
17726;DHT22;8983;53.156;17.960;2023-02-13T13:19:44;6.80;99.90
17726;DHT22;8983;53.156;17.960;2023-02-13T13:22:18;6.80;99.90
17726;DHT22;8983;53.156;17.960;2023-02-13T13:24:57;6.80;99.90
17726;DHT22;8983;53.156;17.960;2023-02-13T13:27:31;6.80;99.90
17726;DHT22;8983;53.156;17.960;2023-02-13T13:30:03;6.80;99.90
17726;DHT22;8983;53.156;17.960;2023-02-13T13:32:33;6.80;99.90
17726;DHT22;8983;53.156;17.960;2023-02-13T13:35:02;6.80;99.90
17726;DHT22;8983;53.156;17.960;2023-02-13T13:37:34;6.70;99.90
17726;DHT22;8983;53.156;17.960;2023-02-13T13:40:19;6.80;99.90
17726;DHT22;8983;53.156;17.960;2023-02-13T13:42:57;6.80;99.90
17726;DHT22;8983;53.156;17.960;2023-02-13T13:45:35;6.80;99.90
17726;DHT22;8983;53.156;17.960;2023-02-13T13:48:22;7.50;99.90
17726;DHT22;8983;53.156;17.960;2023-02-13T13:50:55;6.80;99.90
17726;DHT22;8983;53.156;17.960;2023-02-13T13:53:24;7.30;99.90
17726;DHT22;8983;53.156;17.960;2023-02-13T13:56:06;7.60;99.90
17726;DHT22;8983;53.156;17.960;2023-02-13T13:58:41;6.80;99.90
17726;DHT22;8983;53.156;17.960;2023-02-13T14:01:20;6.80;99.90
17726;DHT22;8983;53.156;17.960;2023-02-13T14:03:51;6.70;99.90
17726;DHT22;8983;53.156;17.960;2023-02-13T14:06:20;6.70;99.90
17726;DHT22;8983;53.156;17.960;2023-02-13T14:08:57;6.70;99.90
17726;DHT22;8983;53.156;17.960;2023-02-13T14:17:49;6.60;99.90
17726;DHT22;8983;53.156;17.960;2023-02-13T14:20:25;6.60;99.90
17726;DHT22;8983;53.156;17.960;2023-02-13T14:22:55;6.60;99.90
17726;DHT22;8983;53.156;17.960;2023-02-13T14:25:32;6.60;99.90
17726;DHT22;8983;53.156;17.960;2023-02-13T14:28:02;7.00;99.90
17726;DHT22;8983;53.156;17.960;2023-02-13T14:30:32;6.60;99.90
17726;DHT22;8983;53.156;17.960;2023-02-13T14:33:04;6.60;99.90
17726;DHT22;8983;53.156;17.960;2023-02-13T14:35:35;6.60;99.90
17726;DHT22;8983;53.156;17.960;2023-02-13T14:38:05;6.60;99.90
17726;DHT22;8983;53.156;17.960;2023-02-13T14:40:45;6.60;99.90
17726;DHT22;8983;53.156;17.960;2023-02-13T14:43:20;6.60;99.90
17726;DHT22;8983;53.156;17.960;2023-02-13T14:45:52;6.50;99.90
17726;DHT22;8983;53.156;17.960;2023-02-13T14:48:30;6.60;99.90
17726;DHT22;8983;53.156;17.960;2023-02-13T14:50:59;6.50;99.90
17726;DHT22;8983;53.156;17.960;2023-02-13T14:53:31;6.60;99.90
17726;DHT22;8983;53.156;17.960;2023-02-13T14:56:05;6.50;99.90
17726;DHT22;8983;53.156;17.960;2023-02-13T14:58:35;6.60;99.90
17726;DHT22;8983;53.156;17.960;2023-02-13T15:01:27;6.60;99.90
17726;DHT22;8983;53.156;17.960;2023-02-13T15:04:02;6.60;99.90
17726;DHT22;8983;53.156;17.960;2023-02-13T15:06:36;6.60;99.90
17726;DHT22;8983;53.156;17.960;2023-02-13T15:09:16;6.60;99.90
17726;DHT22;8983;53.156;17.960;2023-02-13T15:11:44;6.60;99.90
17726;DHT22;8983;53.156;17.960;2023-02-13T15:14:24;6.60;99.90
17726;DHT22;8983;53.156;17.960;2023-02-13T15:16:55;6.50;99.90
17726;DHT22;8983;53.156;17.960;2023-02-13T15:19:25;6.50;99.90
17726;DHT22;8983;53.156;17.960;2023-02-13T15:21:56;7.10;99.90
17726;DHT22;8983;53.156;17.960;2023-02-13T15:24:26;6.50;99.90
17726;DHT22;8983;53.156;17.960;2023-02-13T15:27:00;6.50;99.90
17726;DHT22;8983;53.156;17.960;2023-02-13T15:29:29;6.50;99.90
17726;DHT22;8983;53.156;17.960;2023-02-13T15:32:18;6.50;99.90
17726;DHT22;8983;53.156;17.960;2023-02-13T15:34:50;6.50;99.90
17726;DHT22;8983;53.156;17.960;2023-02-13T15:37:20;6.50;99.90
17726;DHT22;8983;53.156;17.960;2023-02-13T15:39:48;6.40;99.90
17726;DHT22;8983;53.156;17.960;2023-02-13T15:42:16;6.40;99.90
17726;DHT22;8983;53.156;17.960;2023-02-13T15:44:46;6.40;99.90
17726;DHT22;8983;53.156;17.960;2023-02-13T15:47:18;7.50;99.90
17726;DHT22;8983;53.156;17.960;2023-02-13T15:49:51;6.40;99.90
17726;DHT22;8983;53.156;17.960;2023-02-13T15:52:22;6.40;99.90
17726;DHT22;8983;53.156;17.960;2023-02-13T15:54:54;6.40;99.90
17726;DHT22;8983;53.156;17.960;2023-02-13T15:57:23;6.30;99.90
17726;DHT22;8983;53.156;17.960;2023-02-13T15:59:53;7.00;99.90
17726;DHT22;8983;53.156;17.960;2023-02-13T16:02:27;6.90;99.90
17726;DHT22;8983;53.156;17.960;2023-02-13T16:04:57;6.20;99.90
17726;DHT22;8983;53.156;17.960;2023-02-13T16:07:28;6.20;99.90
17726;DHT22;8983;53.156;17.960;2023-02-13T16:10:14;6.00;99.90
17726;DHT22;8983;53.156;17.960;2023-02-13T16:12:45;6.10;99.90
17726;DHT22;8983;53.156;17.960;2023-02-13T16:15:15;6.00;99.90
17726;DHT22;8983;53.156;17.960;2023-02-13T16:17:45;6.00;99.90
17726;DHT22;8983;53.156;17.960;2023-02-13T16:20:20;5.90;99.90
17726;DHT22;8983;53.156;17.960;2023-02-13T16:22:51;5.90;99.90
17726;DHT22;8983;53.156;17.960;2023-02-13T16:25:24;5.90;99.90
17726;DHT22;8983;53.156;17.960;2023-02-13T16:27:55;5.90;99.90
17726;DHT22;8983;53.156;17.960;2023-02-13T16:30:31;5.90;99.90
17726;DHT22;8983;53.156;17.960;2023-02-13T16:33:11;5.90;99.90
17726;DHT22;8983;53.156;17.960;2023-02-13T16:35:48;5.90;99.90